Gentle Leader — C6WY9 — position and weather

sailwx.info

Track history (hours):
 
Tides and Currents Weather Stations Pressure Air Temp Water Temp Dewpoint Dewpoint Depression Visibility Wind Speed Wind Dir Waves Ship Positions

Gentle Leader

Last reported at 2017-Aug-16 17:46 UTC. Time now 2017-Aug-18 22:09 UTC.
Position N 37°59' W 030°52'.

Length 200 m; draft 9 m.

Type: Cargo ship. MMSI: 311003300.

Date/timePositionNaut miles runAvg speedWind from/ knotsBaromVisibWave heightAir tempDewpointWater temp
2017-Aug-16 17:46N 37°59' W 030°52'416.2
2017-Aug-16 17:30N 38°02' W 030°47'815.9
2017-Aug-16 17:00N 38°06' W 030°38'815.8
2017-Aug-16 16:30N 38°10' W 030°30'816.2
2017-Aug-16 16:01N 38°14' W 030°21'816.7
2017-Aug-16 15:31N 38°19' W 030°12'918.1
2017-Aug-16 15:00N 38°24' W 030°02'816.1
2017-Aug-16 14:31N 38°28' W 029°54'611.8
2017-Aug-16 14:00N 38°31' W 029°47'714.9
2017-Aug-16 13:30N 38°35' W 029°39'815.5
2017-Aug-16 13:00N 38°39' W 029°31'815.6
2017-Aug-16 12:30N 38°43' W 029°22'815.6
2017-Aug-16 12:01N 38°47' W 029°14'815.2
2017-Aug-16 11:30N 38°52' W 029°06'815.8
2017-Aug-16 11:00N 38°56' W 028°57'815.3
2017-Aug-16 10:30N 39°00' W 028°49'815.3
2017-Aug-16 10:00N 39°04' W 028°41'815.7
2017-Aug-16 09:30N 39°08' W 028°32'815.4
2017-Aug-16 09:00N 39°12' W 028°24'816.1
2017-Aug-16 08:30N 39°17' W 028°15'816.1
2017-Aug-16 08:01N 39°21' W 028°06'815.8
2017-Aug-16 07:30N 39°26' W 027°58'816.6
2017-Aug-16 07:00N 39°30' W 027°49'816.7
2017-Aug-16 06:30N 39°34' W 027°39'916.6
2017-Aug-16 05:59N 39°39' W 027°30'816.6
2017-Aug-16 05:30N 39°43' W 027°21'1016.8
2017-Aug-16 04:53N 39°49' W 027°09'716.1
2017-Aug-16 04:26N 39°52' W 027°01'715.8
2017-Aug-16 04:00N 39°56' W 026°54'  
2017-Aug-13 09:24N 49°23' W 005°44'2514.3
2017-Aug-13 07:38N 49°37' W 005°11'1715.7
2017-Aug-13 06:34N 49°44' W 004°48'217.0
2017-Aug-13 06:28N 49°44' W 004°45'817.1
2017-Aug-13 06:00N 49°46' W 004°33'917.4
2017-Aug-13 05:30N 49°48' W 004°20'917.8
2017-Aug-13 05:00N 49°50' W 004°07'918.3
2017-Aug-13 04:30N 49°52' W 003°53'918.8
2017-Aug-13 04:00N 49°53' W 003°39'918.9
2017-Aug-13 03:30N 49°56' W 003°24'918.7
2017-Aug-13 03:00N 49°58' W 003°11'918.3
2017-Aug-13 02:30N 50°01' W 002°57'917.9
2017-Aug-13 02:00N 50°03' W 002°43'2616.2
2017-Aug-13 00:25N 50°13' W 002°06'714.9
2017-Aug-12 23:58N 50°16' W 001°57'714.6
2017-Aug-12 23:30N 50°19' W 001°47'714.4
2017-Aug-12 23:00N 50°22' W 001°37'714.4
2017-Aug-12 22:30N 50°25' W 001°27'713.6
2017-Aug-12 22:00N 50°28' W 001°18'713.2
2017-Aug-12 21:30N 50°31' W 001°08'713.6
2017-Aug-12 21:00N 50°35' W 000°60'713.1
2017-Aug-12 20:30N 50°42' W 000°58'612.8
2017-Aug-12 20:00N 50°45' W 001°07'815.1
2017-Aug-12 19:31N 50°47' W 001°18'4 9.0
2017-Aug-12 19:01N 50°51' W 001°21'3 5.6
2017-Aug-12 18:30N 50°53' W 001°24'0 0.0
2017-Aug-12 18:00N 50°53' W 001°24'0 0.0
2017-Aug-12 17:30N 50°53' W 001°24'0 0.0
2017-Aug-12 17:00N 50°53' W 001°24'0 0.0
2017-Aug-12 16:30N 50°53' W 001°24'0 0.0
2017-Aug-12 16:00N 50°53' W 001°24'0 0.0
2017-Aug-12 15:30N 50°53' W 001°24'0 0.0
2017-Aug-12 15:00N 50°53' W 001°24'0 0.0
2017-Aug-12 14:30N 50°53' W 001°24'0 0.0
2017-Aug-12 14:00N 50°53' W 001°24'1 1.2
2017-Aug-12 13:30N 50°53' W 001°24'1 1.8
2017-Aug-12 12:59N 50°54' W 001°25'0 0.0
2017-Aug-12 12:26N 50°54' W 001°25'0 0.0
2017-Aug-12 11:56N 50°54' W 001°25'0 0.0
2017-Aug-12 11:23N 50°54' W 001°25'0 0.0
2017-Aug-12 10:50N 50°54' W 001°25'0 0.0
2017-Aug-12 10:20N 50°54' W 001°25'0 0.0
2017-Aug-12 09:56N 50°54' W 001°25'0 0.0
2017-Aug-12 09:29N 50°54' W 001°25'0 0.0
2017-Aug-12 08:56N 50°54' W 001°25'0 0.0
2017-Aug-12 08:20N 50°54' W 001°25'0 0.0
2017-Aug-12 07:59N 50°54' W 001°25'0 0.0
2017-Aug-12 07:29N 50°54' W 001°25'0 0.0
2017-Aug-12 06:44N 50°54' W 001°25'0 0.0
2017-Aug-12 06:14N 50°54' W 001°25'0 0.0
2017-Aug-12 05:56N 50°54' W 001°25'1 3.0
2017-Aug-12 05:30N 50°53' W 001°24'5 9.2
2017-Aug-12 05:00N 50°50' W 001°19'4 8.9
2017-Aug-12 04:30N 50°46' W 001°15'816.1
2017-Aug-12 04:00N 50°44' W 001°03'611.9
2017-Aug-12 03:31N 50°40' W 000°56'4 8.1
2017-Aug-12 03:00N 50°37' W 000°51'714.6
2017-Aug-12 02:30N 50°36' W 000°40'815.4
2017-Aug-12 02:00N 50°35' W 000°28'815.2
2017-Aug-12 01:30N 50°34' W 000°16'714.0
2017-Aug-12 01:00N 50°32' W 000°05'714.7
2017-Aug-12 00:30N 50°33' E 000°06'714.3
2017-Aug-12 00:00N 50°35' E 000°17'713.9
2017-Aug-11 23:30N 50°37' E 000°27'713.1
2017-Aug-11 23:00N 50°40' E 000°37'612.2
2017-Aug-11 22:31N 50°43' E 000°45'713.0
2017-Aug-11 21:58N 50°47' E 000°54'614.0
2017-Aug-11 21:30N 50°50' E 001°02'814.9
2017-Aug-11 21:00N 50°55' E 001°11'815.7
2017-Aug-11 20:30N 51°01' E 001°21'815.7
2017-Aug-11 20:00N 51°06' E 001°30'815.1
2017-Aug-11 19:31N 51°10' E 001°39'714.4
2017-Aug-11 19:01N 51°15' E 001°48'714.1
2017-Aug-11 18:30N 51°21' E 001°55'612.2
2017-Aug-11 18:00N 51°25' E 002°02'713.7
2017-Aug-11 17:30N 51°22' E 002°12'612.4
2017-Aug-11 17:00N 51°21' E 002°22'612.3
2017-Aug-11 16:30N 51°23' E 002°31'612.5
2017-Aug-11 16:00N 51°23' E 002°41'510.5
2017-Aug-11 15:30N 51°22' E 002°50'713.5
2017-Aug-11 15:00N 51°24' E 003°00'9 9.0
2017-Aug-11 14:00N 51°20' E 003°13'0 0.0
2017-Aug-11 13:30N 51°20' E 003°13'1 2.3
2017-Aug-11 13:01N 51°19' E 003°13'1 1.0
2017-Aug-11 12:29N 51°18' E 003°14'0 0.0
2017-Aug-11 11:59N 51°18' E 003°14'0 0.0
2017-Aug-11 11:29N 51°18' E 003°14'0 0.0
2017-Aug-11 10:59N 51°18' E 003°14'0 0.0
2017-Aug-11 10:29N 51°18' E 003°14'0 0.0
2017-Aug-11 09:59N 51°18' E 003°14'0 0.0
2017-Aug-11 09:29N 51°18' E 003°14'0 0.0
2017-Aug-11 08:59N 51°18' E 003°14'0 0.0
2017-Aug-11 08:29N 51°18' E 003°14'0 0.0
2017-Aug-11 07:59N 51°18' E 003°14'0 0.0
2017-Aug-11 07:29N 51°18' E 003°14'0 0.0
2017-Aug-11 06:59N 51°18' E 003°14'0 0.0
2017-Aug-11 06:29N 51°18' E 003°14'0 0.0
2017-Aug-11 05:59N 51°18' E 003°14'0 0.0
2017-Aug-11 05:29N 51°18' E 003°14'0 0.0
2017-Aug-11 04:59N 51°18' E 003°14'0 0.0
2017-Aug-11 04:29N 51°18' E 003°14'0 0.0
2017-Aug-11 03:59N 51°18' E 003°14'0 0.0
2017-Aug-11 03:29N 51°18' E 003°14'0 0.0
2017-Aug-11 02:59N 51°18' E 003°14'0 0.0
2017-Aug-11 02:29N 51°18' E 003°14'0 0.0
2017-Aug-11 01:59N 51°18' E 003°14'0 0.0
2017-Aug-11 01:29N 51°18' E 003°14'0 0.0
2017-Aug-11 00:59N 51°18' E 003°14'0 0.0
2017-Aug-11 00:29N 51°18' E 003°14'0 0.0
2017-Aug-10 23:59N 51°18' E 003°14'0 0.0
2017-Aug-10 23:29N 51°18' E 003°14'0 0.0
2017-Aug-10 22:59N 51°18' E 003°14'0 0.0
2017-Aug-10 22:29N 51°18' E 003°14'0 0.0
2017-Aug-10 21:59N 51°18' E 003°14'0 0.0
2017-Aug-10 21:29N 51°18' E 003°14'0 0.0
2017-Aug-10 20:59N 51°18' E 003°14'0 0.0
2017-Aug-10 20:29N 51°18' E 003°14'0 0.0
2017-Aug-10 19:59N 51°18' E 003°14'0 0.0
2017-Aug-10 19:29N 51°18' E 003°14'0 0.0
2017-Aug-10 18:59N 51°18' E 003°14'0 0.0
2017-Aug-10 18:29N 51°18' E 003°14'0 0.0
2017-Aug-10 17:59N 51°18' E 003°14'0 0.0
2017-Aug-10 17:29N 51°18' E 003°14'0 0.0
2017-Aug-10 16:59N 51°18' E 003°14'0 0.0
2017-Aug-10 16:29N 51°18' E 003°14'0 0.0
2017-Aug-10 15:59N 51°18' E 003°14'0 0.0
2017-Aug-10 15:29N 51°18' E 003°14'0 0.0
2017-Aug-10 14:59N 51°18' E 003°14'0 0.0
2017-Aug-10 14:29N 51°18' E 003°14'0 0.0
2017-Aug-10 13:56N 51°18' E 003°14'0 0.0
2017-Aug-10 13:29N 51°18' E 003°14'0 0.0
2017-Aug-10 12:59N 51°18' E 003°14'0 0.0
2017-Aug-10 12:29N 51°18' E 003°14'0 0.0
2017-Aug-10 11:59N 51°18' E 003°14'0 0.0
2017-Aug-10 11:29N 51°18' E 003°14'0 0.0
2017-Aug-10 10:59N 51°18' E 003°14'0 0.0
2017-Aug-10 10:29N 51°18' E 003°14'0 0.0
2017-Aug-10 09:59N 51°18' E 003°14'0 0.0
2017-Aug-10 09:29N 51°18' E 003°14'0 0.0
2017-Aug-10 08:59N 51°18' E 003°14'0 0.0
2017-Aug-10 08:29N 51°18' E 003°14'0 0.0
2017-Aug-10 07:59N 51°18' E 003°14'0 0.0
2017-Aug-10 07:29N 51°18' E 003°14'0 0.0
2017-Aug-10 06:59N 51°18' E 003°14'0 0.0
2017-Aug-10 06:29N 51°18' E 003°14'0 0.0
2017-Aug-10 05:59N 51°18' E 003°14'0 0.0
2017-Aug-10 05:29N 51°18' E 003°14'0 0.0
2017-Aug-10 04:59N 51°18' E 003°14'0 0.0
2017-Aug-10 04:29N 51°18' E 003°14'0 0.0
2017-Aug-10 03:59N 51°18' E 003°14'0 0.0
2017-Aug-10 03:29N 51°18' E 003°14'0 0.0
2017-Aug-10 02:59N 51°18' E 003°14'0 0.0
2017-Aug-10 02:29N 51°18' E 003°14'0 0.0
2017-Aug-10 01:59N 51°18' E 003°14'0 0.0
2017-Aug-10 01:30N 51°18' E 003°14'0 0.0
2017-Aug-10 01:00N 51°18' E 003°14'0 0.5
2017-Aug-10 00:30N 51°19' E 003°14'1 2.9
2017-Aug-10 00:00N 51°20' E 003°13'0 0.0
2017-Aug-09 23:30N 51°20' E 003°13'1 1.8
2017-Aug-09 23:00N 51°21' E 003°12'511.0
2017-Aug-09 22:30N 51°24' E 003°05'714.3
2017-Aug-09 22:00N 51°22' E 002°54'713.7
2017-Aug-09 21:30N 51°22' E 002°43'611.3
2017-Aug-09 21:00N 51°22' E 002°34'3 6.5
2017-Aug-09 20:30N 51°25' E 002°32'712.6
2017-Aug-09 19:59N 51°31' E 002°36'613.4
2017-Aug-09 19:30N 51°37' E 002°39'914.0
2017-Aug-09 18:50N 51°46' E 002°37'10313.8
2017-Aug-09 11:22N 53°08' E 004°20'514.9
2017-Aug-09 11:00N 53°13' E 004°24'2114.4
2017-Aug-09 09:35N 53°30' E 004°42'114.0
2017-Aug-09 09:30N 53°31' E 004°44'713.9
2017-Aug-09 08:58N 53°33' E 004°55'613.6
2017-Aug-09 08:30N 53°36' E 005°05'612.6
2017-Aug-09 08:00N 53°37' E 005°15'8813.3
2017-Aug-09 01:26N 53°59' E 007°39'814.5
2017-Aug-09 00:53N 53°53' E 007°47'512.3
2017-Aug-09 00:30N 53°52' E 007°55'713.7
2017-Aug-09 00:01N 53°50' E 008°06'713.7
2017-Aug-08 23:30N 53°45' E 008°13'713.1
2017-Aug-08 23:00N 53°41' E 008°22'612.2
2017-Aug-08 22:30N 53°37' E 008°30'3 6.3
2017-Aug-08 22:01N 53°34' E 008°33'1 1.1
2017-Aug-08 21:29N 53°34' E 008°33'0 0.1
2017-Aug-08 20:59N 53°35' E 008°33'0 0.0
2017-Aug-08 20:29N 53°35' E 008°33'0 0.0
2017-Aug-08 19:59N 53°35' E 008°33'0 0.0
2017-Aug-08 19:29N 53°35' E 008°33'0 0.0
2017-Aug-08 18:59N 53°35' E 008°33'0 0.0
2017-Aug-08 18:29N 53°35' E 008°33'0 0.0
2017-Aug-08 17:59N 53°35' E 008°33'0 0.0
2017-Aug-08 17:29N 53°35' E 008°33'0 0.0
2017-Aug-08 16:59N 53°35' E 008°33'0 0.0
2017-Aug-08 16:29N 53°35' E 008°33'0 0.0
2017-Aug-08 15:59N 53°35' E 008°33'0 0.0
2017-Aug-08 15:29N 53°35' E 008°33'0 0.0
2017-Aug-08 14:59N 53°35' E 008°33'0 0.0
2017-Aug-08 14:29N 53°35' E 008°33'0 0.0
2017-Aug-08 13:59N 53°35' E 008°33'0 0.0
2017-Aug-08 13:29N 53°35' E 008°33'0 0.0
2017-Aug-08 12:59N 53°35' E 008°33'0 0.0
2017-Aug-08 12:29N 53°35' E 008°33'0 0.0
2017-Aug-08 11:59N 53°35' E 008°33'0 0.0
2017-Aug-08 11:29N 53°35' E 008°33'0 0.0
2017-Aug-08 10:59N 53°35' E 008°33'0 0.0
2017-Aug-08 10:29N 53°35' E 008°33'0 0.0
2017-Aug-08 09:59N 53°35' E 008°33'0 0.0
2017-Aug-08 09:29N 53°35' E 008°33'0 0.0
2017-Aug-08 08:59N 53°35' E 008°33'0 0.0
2017-Aug-08 08:29N 53°35' E 008°33'0 0.0
2017-Aug-08 07:59N 53°35' E 008°33'0 0.0
2017-Aug-08 07:29N 53°35' E 008°33'0 0.0
2017-Aug-08 06:59N 53°35' E 008°33'0 0.0
2017-Aug-08 06:29N 53°35' E 008°33'0 0.0
2017-Aug-08 05:59N 53°35' E 008°33'0 0.0
2017-Aug-08 05:29N 53°35' E 008°33'0 0.0
2017-Aug-08 04:59N 53°35' E 008°33'0 0.0
2017-Aug-08 04:29N 53°35' E 008°33'0 0.0
2017-Aug-08 03:59N 53°35' E 008°33'0 0.0
2017-Aug-08 03:29N 53°35' E 008°33'0 0.0
2017-Aug-08 02:59N 53°35' E 008°33'0 0.0
2017-Aug-08 02:29N 53°35' E 008°33'0 0.0
2017-Aug-08 01:59N 53°35' E 008°33'0 0.0
2017-Aug-08 01:29N 53°35' E 008°33'0 0.5
2017-Aug-08 01:01N 53°34' E 008°33'0 0.5
2017-Aug-08 00:31N 53°34' E 008°33'2 4.4
2017-Aug-08 00:00N 53°36' E 008°31'713.6
2017-Aug-07 23:30N 53°40' E 008°22'714.2
2017-Aug-07 23:01N 53°45' E 008°13'714.1
2017-Aug-07 22:30N 53°50' E 008°04'713.7
2017-Aug-07 22:00N 53°52' E 007°53'47 7.3
2017-Aug-07 15:32N 53°34' E 006°39'014.7
2017-Aug-07 15:30N 53°34' E 006°39'815.1
2017-Aug-07 15:00N 53°29' E 006°49'714.0
2017-Aug-07 14:30N 53°24' E 006°57'511.0
2017-Aug-07 14:01N 53°19' E 007°01'5 9.6
2017-Aug-07 13:31N 53°20' E 007°09'1 0.7
2017-Aug-07 12:12N 53°20' E 007°11'0 0.0
2017-Aug-07 12:00N 53°20' E 007°11'0 0.0
2017-Aug-07 04:51N 53°20' E 007°11'0 0.0
2017-Aug-06 20:03N 53°20' E 007°11'0 1.2
2017-Aug-06 20:00N 53°20' E 007°11'2 4.5
2017-Aug-06 19:30N 53°20' E 007°07'5 9.2
2017-Aug-06 19:00N 53°21' E 006°59'611.8
2017-Aug-06 18:29N 53°26' E 006°55'  
Track history (hours):
 
Tides and Currents Weather Stations Pressure Air Temp Water Temp Dewpoint Dewpoint Depression Visibility Wind Speed Wind Dir Waves Ship Positions

Gentle Leader

Last reported at 2017-Aug-16 17:46 UTC. Time now 2017-Aug-18 22:09 UTC.
Position N 37°59' W 030°52'.

Length 200 m; draft 9 m.

Type: Cargo ship. MMSI: 311003300.

Date/timePositionNaut miles runAvg speedWind from/ knotsBaromVisibWave heightAir tempDewpointWater temp
2017-Aug-16 17:46N 37°59' W 030°52'416.2
2017-Aug-16 17:30N 38°02' W 030°47'815.9
2017-Aug-16 17:00N 38°06' W 030°38'815.8
2017-Aug-16 16:30N 38°10' W 030°30'816.2
2017-Aug-16 16:01N 38°14' W 030°21'816.7
2017-Aug-16 15:31N 38°19' W 030°12'918.1
2017-Aug-16 15:00N 38°24' W 030°02'816.1
2017-Aug-16 14:31N 38°28' W 029°54'611.8
2017-Aug-16 14:00N 38°31' W 029°47'714.9
2017-Aug-16 13:30N 38°35' W 029°39'815.5
2017-Aug-16 13:00N 38°39' W 029°31'815.6
2017-Aug-16 12:30N 38°43' W 029°22'815.6
2017-Aug-16 12:01N 38°47' W 029°14'815.2
2017-Aug-16 11:30N 38°52' W 029°06'815.8
2017-Aug-16 11:00N 38°56' W 028°57'815.3
2017-Aug-16 10:30N 39°00' W 028°49'815.3
2017-Aug-16 10:00N 39°04' W 028°41'815.7
2017-Aug-16 09:30N 39°08' W 028°32'815.4
2017-Aug-16 09:00N 39°12' W 028°24'816.1
2017-Aug-16 08:30N 39°17' W 028°15'816.1
2017-Aug-16 08:01N 39°21' W 028°06'815.8
2017-Aug-16 07:30N 39°26' W 027°58'816.6
2017-Aug-16 07:00N 39°30' W 027°49'816.7
2017-Aug-16 06:30N 39°34' W 027°39'916.6
2017-Aug-16 05:59N 39°39' W 027°30'816.6
2017-Aug-16 05:30N 39°43' W 027°21'1016.8
2017-Aug-16 04:53N 39°49' W 027°09'716.1
2017-Aug-16 04:26N 39°52' W 027°01'715.8
2017-Aug-16 04:00N 39°56' W 026°54'  
2017-Aug-13 09:24N 49°23' W 005°44'2514.3
2017-Aug-13 07:38N 49°37' W 005°11'1715.7
2017-Aug-13 06:34N 49°44' W 004°48'217.0
2017-Aug-13 06:28N 49°44' W 004°45'817.1
2017-Aug-13 06:00N 49°46' W 004°33'917.4
2017-Aug-13 05:30N 49°48' W 004°20'917.8
2017-Aug-13 05:00N 49°50' W 004°07'918.3
2017-Aug-13 04:30N 49°52' W 003°53'918.8
2017-Aug-13 04:00N 49°53' W 003°39'918.9
2017-Aug-13 03:30N 49°56' W 003°24'918.7
2017-Aug-13 03:00N 49°58' W 003°11'918.3
2017-Aug-13 02:30N 50°01' W 002°57'917.9
2017-Aug-13 02:00N 50°03' W 002°43'2616.2
2017-Aug-13 00:25N 50°13' W 002°06'714.9
2017-Aug-12 23:58N 50°16' W 001°57'714.6
2017-Aug-12 23:30N 50°19' W 001°47'714.4
2017-Aug-12 23:00N 50°22' W 001°37'714.4
2017-Aug-12 22:30N 50°25' W 001°27'713.6
2017-Aug-12 22:00N 50°28' W 001°18'713.2
2017-Aug-12 21:30N 50°31' W 001°08'713.6
2017-Aug-12 21:00N 50°35' W 000°60'713.1
2017-Aug-12 20:30N 50°42' W 000°58'612.8
2017-Aug-12 20:00N 50°45' W 001°07'815.1
2017-Aug-12 19:31N 50°47' W 001°18'4 9.0
2017-Aug-12 19:01N 50°51' W 001°21'3 5.6
2017-Aug-12 18:30N 50°53' W 001°24'0 0.0
2017-Aug-12 18:00N 50°53' W 001°24'0 0.0
2017-Aug-12 17:30N 50°53' W 001°24'0 0.0
2017-Aug-12 17:00N 50°53' W 001°24'0 0.0
2017-Aug-12 16:30N 50°53' W 001°24'0 0.0
2017-Aug-12 16:00N 50°53' W 001°24'0 0.0
2017-Aug-12 15:30N 50°53' W 001°24'0 0.0
2017-Aug-12 15:00N 50°53' W 001°24'0 0.0
2017-Aug-12 14:30N 50°53' W 001°24'0 0.0
2017-Aug-12 14:00N 50°53' W 001°24'1 1.2
2017-Aug-12 13:30N 50°53' W 001°24'1 1.8
2017-Aug-12 12:59N 50°54' W 001°25'0 0.0
2017-Aug-12 12:26N 50°54' W 001°25'0 0.0
2017-Aug-12 11:56N 50°54' W 001°25'0 0.0
2017-Aug-12 11:23N 50°54' W 001°25'0 0.0
2017-Aug-12 10:50N 50°54' W 001°25'0 0.0
2017-Aug-12 10:20N 50°54' W 001°25'0 0.0
2017-Aug-12 09:56N 50°54' W 001°25'0 0.0
2017-Aug-12 09:29N 50°54' W 001°25'0 0.0
2017-Aug-12 08:56N 50°54' W 001°25'0 0.0
2017-Aug-12 08:20N 50°54' W 001°25'0 0.0
2017-Aug-12 07:59N 50°54' W 001°25'0 0.0
2017-Aug-12 07:29N 50°54' W 001°25'0 0.0
2017-Aug-12 06:44N 50°54' W 001°25'0 0.0
2017-Aug-12 06:14N 50°54' W 001°25'0 0.0
2017-Aug-12 05:56N 50°54' W 001°25'1 3.0
2017-Aug-12 05:30N 50°53' W 001°24'5 9.2
2017-Aug-12 05:00N 50°50' W 001°19'4 8.9
2017-Aug-12 04:30N 50°46' W 001°15'816.1
2017-Aug-12 04:00N 50°44' W 001°03'611.9
2017-Aug-12 03:31N 50°40' W 000°56'4 8.1
2017-Aug-12 03:00N 50°37' W 000°51'714.6
2017-Aug-12 02:30N 50°36' W 000°40'815.4
2017-Aug-12 02:00N 50°35' W 000°28'815.2
2017-Aug-12 01:30N 50°34' W 000°16'714.0
2017-Aug-12 01:00N 50°32' W 000°05'714.7
2017-Aug-12 00:30N 50°33' E 000°06'714.3
2017-Aug-12 00:00N 50°35' E 000°17'713.9
2017-Aug-11 23:30N 50°37' E 000°27'713.1
2017-Aug-11 23:00N 50°40' E 000°37'612.2
2017-Aug-11 22:31N 50°43' E 000°45'713.0
2017-Aug-11 21:58N 50°47' E 000°54'614.0
2017-Aug-11 21:30N 50°50' E 001°02'814.9
2017-Aug-11 21:00N 50°55' E 001°11'815.7
2017-Aug-11 20:30N 51°01' E 001°21'815.7
2017-Aug-11 20:00N 51°06' E 001°30'815.1
2017-Aug-11 19:31N 51°10' E 001°39'714.4
2017-Aug-11 19:01N 51°15' E 001°48'714.1
2017-Aug-11 18:30N 51°21' E 001°55'612.2
2017-Aug-11 18:00N 51°25' E 002°02'713.7
2017-Aug-11 17:30N 51°22' E 002°12'612.4
2017-Aug-11 17:00N 51°21' E 002°22'612.3
2017-Aug-11 16:30N 51°23' E 002°31'612.5
2017-Aug-11 16:00N 51°23' E 002°41'510.5
2017-Aug-11 15:30N 51°22' E 002°50'713.5
2017-Aug-11 15:00N 51°24' E 003°00'9 9.0
2017-Aug-11 14:00N 51°20' E 003°13'0 0.0
2017-Aug-11 13:30N 51°20' E 003°13'1 2.3
2017-Aug-11 13:01N 51°19' E 003°13'1 1.0
2017-Aug-11 12:29N 51°18' E 003°14'0 0.0
2017-Aug-11 11:59N 51°18' E 003°14'0 0.0
2017-Aug-11 11:29N 51°18' E 003°14'0 0.0
2017-Aug-11 10:59N 51°18' E 003°14'0 0.0
2017-Aug-11 10:29N 51°18' E 003°14'0 0.0
2017-Aug-11 09:59N 51°18' E 003°14'0 0.0
2017-Aug-11 09:29N 51°18' E 003°14'0 0.0
2017-Aug-11 08:59N 51°18' E 003°14'0 0.0
2017-Aug-11 08:29N 51°18' E 003°14'0 0.0
2017-Aug-11 07:59N 51°18' E 003°14'0 0.0
2017-Aug-11 07:29N 51°18' E 003°14'0 0.0
2017-Aug-11 06:59N 51°18' E 003°14'0 0.0
2017-Aug-11 06:29N 51°18' E 003°14'0 0.0
2017-Aug-11 05:59N 51°18' E 003°14'0 0.0
2017-Aug-11 05:29N 51°18' E 003°14'0 0.0
2017-Aug-11 04:59N 51°18' E 003°14'0 0.0
2017-Aug-11 04:29N 51°18' E 003°14'0 0.0
2017-Aug-11 03:59N 51°18' E 003°14'0 0.0
2017-Aug-11 03:29N 51°18' E 003°14'0 0.0
2017-Aug-11 02:59N 51°18' E 003°14'0 0.0
2017-Aug-11 02:29N 51°18' E 003°14'0 0.0
2017-Aug-11 01:59N 51°18' E 003°14'0 0.0
2017-Aug-11 01:29N 51°18' E 003°14'0 0.0
2017-Aug-11 00:59N 51°18' E 003°14'0 0.0
2017-Aug-11 00:29N 51°18' E 003°14'0 0.0
2017-Aug-10 23:59N 51°18' E 003°14'0 0.0
2017-Aug-10 23:29N 51°18' E 003°14'0 0.0
2017-Aug-10 22:59N 51°18' E 003°14'0 0.0
2017-Aug-10 22:29N 51°18' E 003°14'0 0.0
2017-Aug-10 21:59N 51°18' E 003°14'0 0.0
2017-Aug-10 21:29N 51°18' E 003°14'0 0.0
2017-Aug-10 20:59N 51°18' E 003°14'0 0.0
2017-Aug-10 20:29N 51°18' E 003°14'0 0.0
2017-Aug-10 19:59N 51°18' E 003°14'0 0.0
2017-Aug-10 19:29N 51°18' E 003°14'0 0.0
2017-Aug-10 18:59N 51°18' E 003°14'0 0.0
2017-Aug-10 18:29N 51°18' E 003°14'0 0.0
2017-Aug-10 17:59N 51°18' E 003°14'0 0.0
2017-Aug-10 17:29N 51°18' E 003°14'0 0.0
2017-Aug-10 16:59N 51°18' E 003°14'0 0.0
2017-Aug-10 16:29N 51°18' E 003°14'0 0.0
2017-Aug-10 15:59N 51°18' E 003°14'0 0.0
2017-Aug-10 15:29N 51°18' E 003°14'0 0.0
2017-Aug-10 14:59N 51°18' E 003°14'0 0.0
2017-Aug-10 14:29N 51°18' E 003°14'0 0.0
2017-Aug-10 13:56N 51°18' E 003°14'0 0.0
2017-Aug-10 13:29N 51°18' E 003°14'0 0.0
2017-Aug-10 12:59N 51°18' E 003°14'0 0.0
2017-Aug-10 12:29N 51°18' E 003°14'0 0.0
2017-Aug-10 11:59N 51°18' E 003°14'0 0.0
2017-Aug-10 11:29N 51°18' E 003°14'0 0.0
2017-Aug-10 10:59N 51°18' E 003°14'0 0.0
2017-Aug-10 10:29N 51°18' E 003°14'0 0.0
2017-Aug-10 09:59N 51°18' E 003°14'0 0.0
2017-Aug-10 09:29N 51°18' E 003°14'0 0.0
2017-Aug-10 08:59N 51°18' E 003°14'0 0.0
2017-Aug-10 08:29N 51°18' E 003°14'0 0.0
2017-Aug-10 07:59N 51°18' E 003°14'0 0.0
2017-Aug-10 07:29N 51°18' E 003°14'0 0.0
2017-Aug-10 06:59N 51°18' E 003°14'0 0.0
2017-Aug-10 06:29N 51°18' E 003°14'0 0.0
2017-Aug-10 05:59N 51°18' E 003°14'0 0.0
2017-Aug-10 05:29N 51°18' E 003°14'0 0.0
2017-Aug-10 04:59N 51°18' E 003°14'0 0.0
2017-Aug-10 04:29N 51°18' E 003°14'0 0.0
2017-Aug-10 03:59N 51°18' E 003°14'0 0.0
2017-Aug-10 03:29N 51°18' E 003°14'0 0.0
2017-Aug-10 02:59N 51°18' E 003°14'0 0.0
2017-Aug-10 02:29N 51°18' E 003°14'0 0.0
2017-Aug-10 01:59N 51°18' E 003°14'0 0.0
2017-Aug-10 01:30N 51°18' E 003°14'0 0.0
2017-Aug-10 01:00N 51°18' E 003°14'0 0.5
2017-Aug-10 00:30N 51°19' E 003°14'1 2.9
2017-Aug-10 00:00N 51°20' E 003°13'0 0.0
2017-Aug-09 23:30N 51°20' E 003°13'1 1.8
2017-Aug-09 23:00N 51°21' E 003°12'511.0
2017-Aug-09 22:30N 51°24' E 003°05'714.3
2017-Aug-09 22:00N 51°22' E 002°54'713.7
2017-Aug-09 21:30N 51°22' E 002°43'611.3
2017-Aug-09 21:00N 51°22' E 002°34'3 6.5
2017-Aug-09 20:30N 51°25' E 002°32'712.6
2017-Aug-09 19:59N 51°31' E 002°36'613.4
2017-Aug-09 19:30N 51°37' E 002°39'914.0
2017-Aug-09 18:50N 51°46' E 002°37'10313.8
2017-Aug-09 11:22N 53°08' E 004°20'514.9
2017-Aug-09 11:00N 53°13' E 004°24'2114.4
2017-Aug-09 09:35N 53°30' E 004°42'114.0
2017-Aug-09 09:30N 53°31' E 004°44'713.9
2017-Aug-09 08:58N 53°33' E 004°55'613.6
2017-Aug-09 08:30N 53°36' E 005°05'612.6
2017-Aug-09 08:00N 53°37' E 005°15'8813.3
2017-Aug-09 01:26N 53°59' E 007°39'814.5
2017-Aug-09 00:53N 53°53' E 007°47'512.3
2017-Aug-09 00:30N 53°52' E 007°55'713.7
2017-Aug-09 00:01N 53°50' E 008°06'713.7
2017-Aug-08 23:30N 53°45' E 008°13'713.1
2017-Aug-08 23:00N 53°41' E 008°22'612.2
2017-Aug-08 22:30N 53°37' E 008°30'3 6.3
2017-Aug-08 22:01N 53°34' E 008°33'1 1.1
2017-Aug-08 21:29N 53°34' E 008°33'0 0.1
2017-Aug-08 20:59N 53°35' E 008°33'0 0.0
2017-Aug-08 20:29N 53°35' E 008°33'0 0.0
2017-Aug-08 19:59N 53°35' E 008°33'0 0.0
2017-Aug-08 19:29N 53°35' E 008°33'0 0.0
2017-Aug-08 18:59N 53°35' E 008°33'0 0.0
2017-Aug-08 18:29N 53°35' E 008°33'0 0.0
2017-Aug-08 17:59N 53°35' E 008°33'0 0.0
2017-Aug-08 17:29N 53°35' E 008°33'0 0.0
2017-Aug-08 16:59N 53°35' E 008°33'0 0.0
2017-Aug-08 16:29N 53°35' E 008°33'0 0.0
2017-Aug-08 15:59N 53°35' E 008°33'0 0.0
2017-Aug-08 15:29N 53°35' E 008°33'0 0.0
2017-Aug-08 14:59N 53°35' E 008°33'0 0.0
2017-Aug-08 14:29N 53°35' E 008°33'0 0.0
2017-Aug-08 13:59N 53°35' E 008°33'0 0.0
2017-Aug-08 13:29N 53°35' E 008°33'0 0.0
2017-Aug-08 12:59N 53°35' E 008°33'0 0.0
2017-Aug-08 12:29N 53°35' E 008°33'0 0.0
2017-Aug-08 11:59N 53°35' E 008°33'0 0.0
2017-Aug-08 11:29N 53°35' E 008°33'0 0.0
2017-Aug-08 10:59N 53°35' E 008°33'0 0.0
2017-Aug-08 10:29N 53°35' E 008°33'0 0.0
2017-Aug-08 09:59N 53°35' E 008°33'0 0.0
2017-Aug-08 09:29N 53°35' E 008°33'0 0.0
2017-Aug-08 08:59N 53°35' E 008°33'0 0.0
2017-Aug-08 08:29N 53°35' E 008°33'0 0.0
2017-Aug-08 07:59N 53°35' E 008°33'0 0.0
2017-Aug-08 07:29N 53°35' E 008°33'0 0.0
2017-Aug-08 06:59N 53°35' E 008°33'0 0.0
2017-Aug-08 06:29N 53°35' E 008°33'0 0.0
2017-Aug-08 05:59N 53°35' E 008°33'0 0.0
2017-Aug-08 05:29N 53°35' E 008°33'0 0.0
2017-Aug-08 04:59N 53°35' E 008°33'0 0.0
2017-Aug-08 04:29N 53°35' E 008°33'0 0.0
2017-Aug-08 03:59N 53°35' E 008°33'0 0.0
2017-Aug-08 03:29N 53°35' E 008°33'0 0.0
2017-Aug-08 02:59N 53°35' E 008°33'0 0.0
2017-Aug-08 02:29N 53°35' E 008°33'0 0.0
2017-Aug-08 01:59N 53°35' E 008°33'0 0.0
2017-Aug-08 01:29N 53°35' E 008°33'0 0.5
2017-Aug-08 01:01N 53°34' E 008°33'0 0.5
2017-Aug-08 00:31N 53°34' E 008°33'2 4.4
2017-Aug-08 00:00N 53°36' E 008°31'713.6
2017-Aug-07 23:30N 53°40' E 008°22'714.2
2017-Aug-07 23:01N 53°45' E 008°13'714.1
2017-Aug-07 22:30N 53°50' E 008°04'713.7
2017-Aug-07 22:00N 53°52' E 007°53'47 7.3
2017-Aug-07 15:32N 53°34' E 006°39'014.7
2017-Aug-07 15:30N 53°34' E 006°39'815.1
2017-Aug-07 15:00N 53°29' E 006°49'714.0
2017-Aug-07 14:30N 53°24' E 006°57'511.0
2017-Aug-07 14:01N 53°19' E 007°01'5 9.6
2017-Aug-07 13:31N 53°20' E 007°09'1 0.7
2017-Aug-07 12:12N 53°20' E 007°11'0 0.0
2017-Aug-07 12:00N 53°20' E 007°11'0 0.0
2017-Aug-07 04:51N 53°20' E 007°11'0 0.0
2017-Aug-06 20:03N 53°20' E 007°11'0 1.2
2017-Aug-06 20:00N 53°20' E 007°11'2 4.5
2017-Aug-06 19:30N 53°20' E 007°07'5 9.2
2017-Aug-06 19:00N 53°21' E 006°59'611.8
2017-Aug-06 18:29N 53°26' E 006°55'  

Dump ship's entire track history